createdAt,value
2018-05-27T00:00:45.701Z,21.12
2018-05-27T00:01:45.670Z,20.96
2018-05-27T00:02:45.637Z,20.72
2018-05-27T00:03:45.604Z,20.58
2018-05-27T00:04:45.572Z,20.50
2018-05-27T00:05:45.547Z,20.28
2018-05-27T00:06:45.518Z,20.26
2018-05-27T00:07:45.489Z,20.21
2018-05-27T00:08:45.459Z,20.21
2018-05-27T00:09:45.425Z,20.19
2018-05-27T00:10:45.393Z,20.31
2018-05-27T00:11:45.363Z,20.41
2018-05-27T00:12:45.331Z,20.40
2018-05-27T00:13:45.300Z,20.44
2018-05-27T00:14:45.271Z,20.43
2018-05-27T00:15:45.243Z,20.55
2018-05-27T00:16:45.208Z,20.52
2018-05-27T00:17:45.181Z,20.60
2018-05-27T00:18:45.150Z,20.55
2018-05-27T00:19:45.121Z,20.59
2018-05-27T00:20:45.093Z,20.69
2018-05-27T00:21:45.059Z,20.67
2018-05-27T00:22:45.026Z,20.70
2018-05-27T00:23:44.994Z,20.70
2018-05-27T00:24:44.964Z,20.74
2018-05-27T00:25:44.932Z,20.70
2018-05-27T00:26:44.914Z,20.74
2018-05-27T00:27:44.882Z,20.70
2018-05-27T00:28:44.844Z,20.78
2018-05-27T00:29:44.816Z,20.77
2018-05-27T00:30:44.791Z,20.75
2018-05-27T00:31:44.749Z,20.84
2018-05-27T00:32:44.723Z,20.90
2018-05-27T00:33:44.690Z,20.88
2018-05-27T00:34:44.668Z,20.87
2018-05-27T00:35:44.624Z,20.87
2018-05-27T00:36:44.593Z,20.87
2018-05-27T00:37:44.575Z,20.81
2018-05-27T00:38:44.535Z,20.80
2018-05-27T00:39:44.514Z,20.81
2018-05-27T00:40:44.476Z,20.81
2018-05-27T00:41:44.448Z,20.77
2018-05-27T00:42:44.410Z,20.80
2018-05-27T00:43:44.382Z,20.74
2018-05-27T00:44:44.351Z,20.77
2018-05-27T00:45:44.319Z,20.72
2018-05-27T00:46:44.297Z,20.77
2018-05-27T00:47:44.260Z,20.77
2018-05-27T00:48:44.231Z,20.75
2018-05-27T00:49:44.196Z,20.77
2018-05-27T00:50:44.172Z,20.77
2018-05-27T00:51:44.140Z,20.75
2018-05-27T00:52:44.115Z,20.75
2018-05-27T00:53:44.079Z,20.72
2018-05-27T00:54:44.044Z,20.70
2018-05-27T00:55:44.016Z,20.75
2018-05-27T00:56:43.982Z,20.72
2018-05-27T00:57:43.948Z,20.77
2018-05-27T00:58:43.927Z,20.70
2018-05-27T00:59:43.892Z,20.84
2018-05-27T01:00:43.869Z,20.74
2018-05-27T01:01:43.834Z,20.74
2018-05-27T01:02:43.793Z,20.72
2018-05-27T01:03:43.769Z,20.69
2018-05-27T01:04:43.738Z,20.74
2018-05-27T01:05:43.709Z,20.84
2018-05-27T01:06:43.671Z,20.72
2018-05-27T01:07:43.640Z,20.78
2018-05-27T01:08:43.614Z,20.82
2018-05-27T01:09:43.577Z,20.75
2018-05-27T01:10:43.560Z,20.77
2018-05-27T01:11:43.523Z,20.75
2018-05-27T01:12:43.491Z,20.77
2018-05-27T01:13:43.464Z,20.77
2018-05-27T01:14:43.430Z,20.74
2018-05-27T01:15:43.396Z,20.75
2018-05-27T01:16:43.364Z,20.75
2018-05-27T01:17:43.334Z,20.77
2018-05-27T01:18:43.318Z,20.81
2018-05-27T01:19:43.277Z,20.80
2018-05-27T01:20:43.244Z,20.74
2018-05-27T01:21:43.209Z,20.69
2018-05-27T01:22:43.183Z,20.74
2018-05-27T01:23:43.155Z,20.81
2018-05-27T01:24:43.136Z,20.72
2018-05-27T01:25:43.091Z,20.74
2018-05-27T01:26:43.053Z,20.74
2018-05-27T01:27:43.029Z,20.74
2018-05-27T01:28:42.996Z,20.77
2018-05-27T01:29:42.959Z,20.72
2018-05-27T01:30:42.939Z,20.80
2018-05-27T01:31:42.905Z,20.75
2018-05-27T01:32:42.873Z,20.77
2018-05-27T01:33:42.845Z,20.74
2018-05-27T01:34:42.809Z,20.69
2018-05-27T01:35:42.782Z,20.77
2018-05-27T01:36:42.757Z,20.69
2018-05-27T01:37:42.721Z,20.72
2018-05-27T01:38:42.684Z,20.67
2018-05-27T01:39:42.656Z,20.62
2018-05-27T01:40:42.625Z,20.63
2018-05-27T01:41:42.590Z,20.62
2018-05-27T01:42:42.567Z,20.56
2018-05-27T01:43:42.534Z,20.51
2018-05-27T01:44:42.506Z,20.40
2018-05-27T01:45:42.478Z,20.44
2018-05-27T01:46:42.441Z,20.29
2018-05-27T01:47:42.409Z,20.21
2018-05-27T01:48:42.379Z,20.14
2018-05-27T01:49:42.348Z,20.04
2018-05-27T01:50:42.320Z,20.11
2018-05-27T01:51:42.292Z,20.11
2018-05-27T01:52:42.254Z,20.09
2018-05-27T01:53:42.222Z,20.04
2018-05-27T01:54:42.197Z,20.09
2018-05-27T01:55:42.164Z,20.14
2018-05-27T01:56:42.134Z,20.16
2018-05-27T01:57:42.106Z,20.24
2018-05-27T01:58:42.069Z,20.09
2018-05-27T01:59:42.039Z,20.02
2018-05-27T02:00:42.009Z,20.11
2018-05-27T02:01:41.975Z,20.14
2018-05-27T02:02:41.950Z,20.14
2018-05-27T02:03:41.919Z,20.19
2018-05-27T02:04:41.887Z,20.19
2018-05-27T02:05:41.855Z,20.19
2018-05-27T02:06:41.823Z,20.29
2018-05-27T02:07:41.792Z,20.29
2018-05-27T02:08:41.764Z,20.32
2018-05-27T02:09:41.733Z,20.34
2018-05-27T02:10:41.696Z,20.32
2018-05-27T02:11:41.672Z,20.26
2018-05-27T02:12:41.638Z,20.31
2018-05-27T02:13:41.600Z,20.40
2018-05-27T02:14:41.578Z,20.41
2018-05-27T02:15:41.547Z,20.43
2018-05-27T02:16:41.515Z,20.41
2018-05-27T02:17:41.494Z,20.36
2018-05-27T02:18:41.449Z,20.24
2018-05-27T02:19:41.420Z,20.21
2018-05-27T02:20:41.404Z,20.07
2018-05-27T02:21:41.359Z,19.92
2018-05-27T02:22:41.330Z,19.82
2018-05-27T02:23:41.297Z,19.81
2018-05-27T02:24:41.265Z,19.70
2018-05-27T02:25:41.233Z,19.69
2018-05-27T02:26:41.212Z,19.59
2018-05-27T02:27:41.178Z,19.58
2018-05-27T02:28:41.144Z,19.64
2018-05-27T02:29:41.113Z,19.73
2018-05-27T02:30:41.077Z,19.67
2018-05-27T02:31:41.046Z,19.76
2018-05-27T02:32:41.018Z,19.77
2018-05-27T02:33:40.984Z,19.88
2018-05-27T02:34:40.957Z,19.89
2018-05-27T02:35:40.925Z,20.02
2018-05-27T02:36:40.892Z,20.00
2018-05-27T02:37:40.864Z,20.06
2018-05-27T02:38:40.831Z,20.06
2018-05-27T02:39:40.799Z,20.13
2018-05-27T02:40:40.771Z,20.11
2018-05-27T02:41:40.740Z,20.14
2018-05-27T02:42:40.705Z,20.14
2018-05-27T02:43:40.675Z,20.07
2018-05-27T02:44:40.643Z,20.18
2018-05-27T02:45:40.612Z,20.07
2018-05-27T02:46:40.585Z,20.21
2018-05-27T02:47:40.558Z,20.18
2018-05-27T02:48:40.522Z,20.18
2018-05-27T02:49:40.491Z,20.21
2018-05-27T02:50:40.460Z,20.22
2018-05-27T02:51:40.428Z,20.18
2018-05-27T02:52:40.396Z,20.22
2018-05-27T02:53:40.363Z,20.11
2018-05-27T02:54:40.335Z,20.06
2018-05-27T02:55:40.303Z,20.13
2018-05-27T02:56:40.274Z,20.13
2018-05-27T02:57:40.238Z,20.13
2018-05-27T02:58:40.211Z,20.11
2018-05-27T02:59:40.181Z,20.07
2018-05-27T03:00:40.150Z,20.13
2018-05-27T03:01:40.118Z,20.16
2018-05-27T03:02:40.081Z,20.14
2018-05-27T03:03:40.049Z,20.18
2018-05-27T03:04:40.025Z,20.19
2018-05-27T03:05:39.989Z,20.03
2018-05-27T03:06:39.965Z,20.18
2018-05-27T03:07:39.932Z,20.16
2018-05-27T03:08:39.907Z,20.18
2018-05-27T03:09:39.868Z,20.16
2018-05-27T03:10:39.840Z,20.18
2018-05-27T03:11:39.803Z,20.11
2018-05-27T03:12:39.774Z,20.04
2018-05-27T03:13:39.744Z,20.14
2018-05-27T03:14:39.705Z,20.14
2018-05-27T03:15:39.678Z,20.14
2018-05-27T03:16:39.647Z,20.16
2018-05-27T03:17:39.616Z,20.11
2018-05-27T03:18:39.587Z,20.10
2018-05-27T03:19:39.555Z,20.10
2018-05-27T03:20:39.524Z,20.07
2018-05-27T03:21:39.497Z,20.18
2018-05-27T03:22:39.458Z,20.04
2018-05-27T03:23:39.440Z,20.07
2018-05-27T03:24:39.403Z,20.07
2018-05-27T03:25:39.369Z,20.06
2018-05-27T03:26:39.337Z,20.06
2018-05-27T03:27:39.305Z,20.02
2018-05-27T03:28:39.276Z,20.11
2018-05-27T03:29:39.238Z,20.00
2018-05-27T03:30:39.213Z,20.07
2018-05-27T03:31:39.179Z,20.04
2018-05-27T03:32:39.151Z,20.11
2018-05-27T03:33:39.120Z,20.07
2018-05-27T03:34:39.084Z,20.07
2018-05-27T03:35:39.051Z,20.04
2018-05-27T03:36:39.023Z,20.07
2018-05-27T03:37:38.985Z,20.07
2018-05-27T03:38:38.967Z,20.09
2018-05-27T03:39:38.931Z,20.06
2018-05-27T03:40:38.904Z,20.10
2018-05-27T03:41:38.874Z,20.10
2018-05-27T03:42:38.835Z,20.09
2018-05-27T03:43:38.801Z,20.13
2018-05-27T03:44:38.780Z,20.14
2018-05-27T03:45:38.748Z,20.11
2018-05-27T03:46:38.707Z,20.25
2018-05-27T03:47:38.677Z,20.13
2018-05-27T03:48:38.647Z,20.10
2018-05-27T03:49:38.614Z,20.18
2018-05-27T03:50:38.586Z,20.09
2018-05-27T03:51:38.554Z,20.07
2018-05-27T03:52:38.524Z,20.14
2018-05-27T03:53:38.491Z,19.81
2018-05-27T03:54:38.456Z,19.77
2018-05-27T03:55:38.425Z,19.58
2018-05-27T03:56:38.405Z,19.52
2018-05-27T03:57:38.363Z,19.33
2018-05-27T03:58:38.342Z,19.31
2018-05-27T03:59:38.306Z,19.12
2018-05-27T04:00:38.270Z,18.92
2018-05-27T04:01:38.238Z,18.96
2018-05-27T04:02:38.210Z,18.74
2018-05-27T04:03:38.179Z,18.81
2018-05-27T04:04:38.146Z,18.78
2018-05-27T04:05:38.118Z,18.78
2018-05-27T04:06:38.080Z,18.75
2018-05-27T04:07:38.051Z,18.73
2018-05-27T04:08:38.030Z,18.80
2018-05-27T04:09:37.985Z,18.78
2018-05-27T04:10:37.961Z,18.81
2018-05-27T04:11:37.929Z,18.88
2018-05-27T04:12:37.895Z,18.90
2018-05-27T04:13:37.873Z,19.00
2018-05-27T04:14:37.827Z,19.00
2018-05-27T04:15:37.796Z,19.08
2018-05-27T04:16:37.771Z,19.00
2018-05-27T04:17:37.741Z,19.18
2018-05-27T04:18:37.705Z,19.16
2018-05-27T04:19:37.676Z,19.16
2018-05-27T04:20:37.641Z,19.26
2018-05-27T04:21:37.607Z,19.29
2018-05-27T04:22:37.586Z,19.34
2018-05-27T04:23:37.548Z,19.36
2018-05-27T04:24:37.520Z,19.33
2018-05-27T04:25:37.486Z,19.21
2018-05-27T04:26:37.454Z,18.95
2018-05-27T04:27:37.426Z,19.02
2018-05-27T04:28:37.421Z,18.88
2018-05-27T04:29:37.353Z,18.96
2018-05-27T04:30:37.328Z,18.95
2018-05-27T04:31:37.294Z,18.89
2018-05-27T04:32:37.266Z,18.84
2018-05-27T04:33:37.228Z,18.95
2018-05-27T04:34:37.200Z,19.07
2018-05-27T04:35:37.168Z,19.08
2018-05-27T04:36:37.185Z,19.14
2018-05-27T04:37:37.109Z,19.02
2018-05-27T04:38:37.073Z,19.24
2018-05-27T04:39:37.039Z,19.19
2018-05-27T04:40:37.023Z,19.21
2018-05-27T04:41:36.976Z,19.30
2018-05-27T04:42:36.957Z,19.34
2018-05-27T04:43:36.917Z,19.33
2018-05-27T04:44:36.897Z,19.33
2018-05-27T04:45:36.853Z,19.33
2018-05-27T04:46:36.818Z,19.31
2018-05-27T04:47:36.790Z,19.52
2018-05-27T04:48:36.758Z,19.44
2018-05-27T04:49:36.730Z,19.52
2018-05-27T04:50:36.691Z,19.54
2018-05-27T04:51:36.664Z,19.59
2018-05-27T04:52:36.629Z,19.55
2018-05-27T04:53:36.599Z,19.55
2018-05-27T04:54:36.570Z,19.70
2018-05-27T04:55:36.541Z,19.66
2018-05-27T04:56:36.505Z,19.84
2018-05-27T04:57:36.470Z,19.94
2018-05-27T04:58:36.445Z,20.09
2018-05-27T04:59:36.417Z,20.09
2018-05-27T05:00:36.379Z,20.16
2018-05-27T05:01:36.363Z,20.26
2018-05-27T05:02:36.316Z,20.32
2018-05-27T05:03:36.284Z,20.44
2018-05-27T05:04:36.253Z,20.40
2018-05-27T05:05:36.227Z,20.48
2018-05-27T05:06:36.187Z,20.59
2018-05-27T05:07:36.162Z,20.63
2018-05-27T05:08:36.128Z,20.75
2018-05-27T05:09:44.732Z,20.78
2018-05-27T05:11:29.449Z,20.85
2018-05-27T05:12:29.386Z,20.99
2018-05-27T05:13:29.367Z,20.96
2018-05-27T05:14:29.327Z,20.96
2018-05-27T05:15:29.294Z,21.03
2018-05-27T05:16:29.262Z,21.05
2018-05-27T05:17:29.226Z,21.14
2018-05-27T05:18:29.195Z,21.09
2018-05-27T05:19:29.170Z,21.14
2018-05-27T05:20:29.138Z,21.06
2018-05-27T05:21:29.107Z,21.05
2018-05-27T05:22:29.069Z,21.00
2018-05-27T05:23:29.042Z,21.03
2018-05-27T05:24:29.014Z,20.90
2018-05-27T05:25:28.984Z,20.92
2018-05-27T05:26:28.952Z,20.88
2018-05-27T05:27:28.923Z,20.81
2018-05-27T05:28:28.888Z,20.74
2018-05-27T05:29:28.865Z,20.74
2018-05-27T05:30:28.827Z,20.72
2018-05-27T05:31:28.795Z,20.58
2018-05-27T05:32:28.772Z,20.44
2018-05-27T05:33:28.738Z,20.47
2018-05-27T05:34:28.711Z,20.40
2018-05-27T05:35:28.682Z,20.26
2018-05-27T05:36:28.643Z,20.21
2018-05-27T05:37:28.616Z,20.16
2018-05-27T05:38:28.583Z,20.21
2018-05-27T05:39:28.554Z,20.21
2018-05-27T05:40:28.520Z,20.22
2018-05-27T05:41:28.497Z,20.19
2018-05-27T05:42:28.457Z,20.24
2018-05-27T05:43:28.427Z,20.25
2018-05-27T05:44:28.404Z,20.32
2018-05-27T05:45:28.368Z,20.25
2018-05-27T05:46:28.337Z,20.41
2018-05-27T05:47:28.310Z,20.47
2018-05-27T05:48:28.268Z,20.60
2018-05-27T05:49:28.243Z,20.60
2018-05-27T05:50:28.215Z,20.50
2018-05-27T05:51:28.183Z,20.47
2018-05-27T05:52:28.152Z,20.44
2018-05-27T05:53:28.118Z,20.40
2018-05-27T05:54:28.090Z,20.41
2018-05-27T05:55:28.057Z,20.48
2018-05-27T05:56:28.031Z,20.51
2018-05-27T05:57:27.998Z,20.51
2018-05-27T05:58:27.968Z,20.66
2018-05-27T05:59:27.937Z,20.74
2018-05-27T06:00:27.903Z,20.93
2018-05-27T06:01:27.872Z,21.03
2018-05-27T06:02:27.842Z,21.20
2018-05-27T06:03:27.813Z,21.33
2018-05-27T06:04:27.785Z,21.33
2018-05-27T06:05:27.755Z,21.30
2018-05-27T06:06:27.723Z,21.32
2018-05-27T06:07:27.697Z,21.25
2018-05-27T06:08:27.664Z,21.30
2018-05-27T06:09:27.634Z,21.35
2018-05-27T06:10:27.603Z,21.30
2018-05-27T06:11:27.574Z,21.30
2018-05-27T06:12:27.544Z,21.29
2018-05-27T06:13:27.527Z,21.25
2018-05-27T06:14:27.481Z,21.43
2018-05-27T06:15:27.448Z,21.40
2018-05-27T06:16:27.423Z,21.54
2018-05-27T06:17:27.394Z,21.54
2018-05-27T06:18:27.361Z,21.62
2018-05-27T06:19:27.336Z,21.61
2018-05-27T06:20:27.303Z,21.75
2018-05-27T06:21:27.271Z,21.85
2018-05-27T06:22:27.244Z,21.98
2018-05-27T06:23:27.211Z,22.10
2018-05-27T06:24:27.189Z,22.10
2018-05-27T06:25:27.148Z,22.17
2018-05-27T06:26:27.121Z,22.20
2018-05-27T06:27:27.087Z,22.32
2018-05-27T06:28:27.064Z,22.44
2018-05-27T06:29:27.077Z,22.39
2018-05-27T06:30:27.002Z,22.48
2018-05-27T06:31:26.973Z,22.51
2018-05-27T06:32:26.936Z,22.66
2018-05-27T06:33:26.910Z,22.68
2018-05-27T06:34:26.883Z,22.75
2018-05-27T06:35:26.848Z,22.68
2018-05-27T06:36:26.830Z,22.76
2018-05-27T06:37:26.796Z,22.83
2018-05-27T06:38:26.768Z,22.87
2018-05-27T06:39:26.737Z,22.94
2018-05-27T06:40:26.702Z,22.90
2018-05-27T06:41:26.686Z,22.99
2018-05-27T06:42:26.651Z,22.96
2018-05-27T06:43:26.619Z,22.93
2018-05-27T06:44:26.579Z,22.84
2018-05-27T06:45:26.553Z,22.87
2018-05-27T06:46:26.528Z,22.81
2018-05-27T06:47:26.495Z,22.94
2018-05-27T06:48:26.472Z,22.98
2018-05-27T06:49:26.441Z,23.12
2018-05-27T06:50:26.410Z,23.15
2018-05-27T06:51:26.382Z,23.32
2018-05-27T06:52:26.348Z,23.39
2018-05-27T06:53:26.321Z,23.43
2018-05-27T06:54:26.293Z,23.41
2018-05-27T06:55:26.262Z,23.41
2018-05-27T06:56:26.239Z,23.48
2018-05-27T06:57:26.205Z,23.51
2018-05-27T06:58:26.175Z,23.63
2018-05-27T06:59:26.144Z,23.68
2018-05-27T07:00:26.121Z,23.74
2018-05-27T07:01:26.091Z,23.58
2018-05-27T07:02:26.070Z,23.59
2018-05-27T07:03:26.034Z,23.61
2018-05-27T07:04:26.041Z,23.66
2018-05-27T07:05:25.974Z,23.62
2018-05-27T07:06:25.943Z,23.62
2018-05-27T07:07:25.915Z,23.78
2018-05-27T07:08:25.888Z,23.83
2018-05-27T07:09:25.857Z,23.87
2018-05-27T07:10:25.830Z,23.92
2018-05-27T07:11:25.806Z,24.02
2018-05-27T07:12:25.769Z,24.13
2018-05-27T07:13:25.740Z,24.18
2018-05-27T07:14:25.750Z,24.29
2018-05-27T07:15:25.686Z,24.38
2018-05-27T07:16:25.648Z,24.45
2018-05-27T07:17:25.622Z,24.39
2018-05-27T07:18:25.599Z,24.42
2018-05-27T07:19:25.566Z,24.43
2018-05-27T07:20:25.547Z,24.38
2018-05-27T07:21:25.513Z,24.42
2018-05-27T07:22:25.488Z,24.36
2018-05-27T07:23:25.460Z,24.33
2018-05-27T07:24:25.433Z,24.29
2018-05-27T07:25:25.395Z,24.14
2018-05-27T07:26:25.368Z,24.13
2018-05-27T07:27:25.338Z,24.14
2018-05-27T07:28:25.321Z,24.16
2018-05-27T07:29:25.285Z,24.11
2018-05-27T07:30:25.259Z,24.14
2018-05-27T07:31:25.228Z,24.11
2018-05-27T07:32:25.216Z,24.28
2018-05-27T07:33:25.173Z,24.20
2018-05-27T07:34:25.153Z,24.32
2018-05-27T07:35:25.122Z,24.36
2018-05-27T07:36:25.085Z,24.42
2018-05-27T07:37:25.060Z,24.43
2018-05-27T07:38:25.040Z,24.43
2018-05-27T07:39:25.001Z,24.48
2018-05-27T07:40:24.986Z,24.58
2018-05-27T07:41:24.956Z,24.57
2018-05-27T07:42:24.921Z,24.66
2018-05-27T07:43:24.892Z,24.70
2018-05-27T07:44:24.861Z,24.77
2018-05-27T07:45:24.833Z,24.88
2018-05-27T07:46:24.808Z,25.11
2018-05-27T07:47:24.780Z,25.13
2018-05-27T07:48:24.746Z,24.84
2018-05-27T07:49:24.722Z,24.73
2018-05-27T07:50:24.696Z,24.66
2018-05-27T07:51:24.664Z,24.63
2018-05-27T07:52:24.652Z,24.70
2018-05-27T07:53:24.613Z,24.84
2018-05-27T07:54:24.585Z,24.89
2018-05-27T07:55:24.563Z,24.93
2018-05-27T07:56:24.524Z,25.08
2018-05-27T07:57:24.507Z,25.11
2018-05-27T07:58:24.544Z,25.13
2018-05-27T07:59:24.442Z,25.25
2018-05-27T08:00:24.424Z,25.25
2018-05-27T08:01:24.388Z,25.26
2018-05-27T08:02:24.362Z,25.35
2018-05-27T08:03:24.339Z,25.43
2018-05-27T08:04:24.307Z,25.43
2018-05-27T08:05:24.281Z,25.38
2018-05-27T08:06:24.269Z,25.25
2018-05-27T08:07:24.235Z,25.41
2018-05-27T08:08:24.192Z,25.46
2018-05-27T08:09:24.171Z,25.51
2018-05-27T08:10:24.138Z,25.54
2018-05-27T08:11:24.110Z,25.50
2018-05-27T08:12:24.092Z,25.59
2018-05-27T08:13:24.059Z,25.58
2018-05-27T08:14:24.029Z,25.65
2018-05-27T08:15:24.005Z,25.72
2018-05-27T08:16:23.974Z,25.75
2018-05-27T08:17:23.946Z,25.63
2018-05-27T08:18:23.923Z,25.70
2018-05-27T08:19:23.895Z,25.68
2018-05-27T08:20:23.861Z,25.66
2018-05-27T08:21:23.839Z,25.63
2018-05-27T08:22:23.809Z,25.62
2018-05-27T08:23:23.780Z,25.63
2018-05-27T08:24:23.768Z,25.80
2018-05-27T08:25:23.728Z,25.72
2018-05-27T08:26:23.701Z,25.69
2018-05-27T08:27:23.676Z,25.68
2018-05-27T08:28:23.641Z,25.80
2018-05-27T08:29:23.624Z,25.83
2018-05-27T08:30:23.590Z,25.81
2018-05-27T08:31:23.569Z,25.77
2018-05-27T08:32:23.543Z,25.84
2018-05-27T08:33:23.510Z,25.84
2018-05-27T08:34:23.485Z,25.87
2018-05-27T08:35:23.462Z,25.85
2018-05-27T08:36:23.432Z,25.99
2018-05-27T08:37:23.411Z,25.85
2018-05-27T08:38:23.377Z,25.93
2018-05-27T08:39:23.348Z,25.99
2018-05-27T08:40:23.312Z,26.09
2018-05-27T08:41:23.290Z,26.00
2018-05-27T08:42:23.262Z,26.00
2018-05-27T08:43:23.248Z,26.00
2018-05-27T08:44:23.213Z,26.06
2018-05-27T08:45:23.182Z,25.98
2018-05-27T08:46:23.158Z,25.99
2018-05-27T08:47:23.128Z,25.95
2018-05-27T08:48:23.093Z,25.98
2018-05-27T08:49:23.078Z,25.98
2018-05-27T08:50:23.044Z,26.10
2018-05-27T08:51:23.029Z,26.18
2018-05-27T08:52:22.994Z,26.03
2018-05-27T08:53:23.016Z,26.16
2018-05-27T08:54:22.933Z,26.05
2018-05-27T08:55:22.910Z,26.10
2018-05-27T08:56:22.883Z,26.00
2018-05-27T08:57:22.861Z,26.06
2018-05-27T08:58:22.830Z,26.02
2018-05-27T08:59:22.800Z,25.98
2018-05-27T09:00:22.769Z,26.05
2018-05-27T09:01:22.755Z,26.03
2018-05-27T09:02:22.719Z,26.05
2018-05-27T09:03:22.684Z,26.03
2018-05-27T09:04:22.663Z,26.03
2018-05-27T09:05:22.635Z,26.05
2018-05-27T09:06:22.613Z,26.16
2018-05-27T09:07:22.577Z,26.19
2018-05-27T09:08:22.559Z,26.19
2018-05-27T09:09:22.527Z,26.05
2018-05-27T09:10:22.504Z,26.02
2018-05-27T09:11:22.485Z,26.00
2018-05-27T09:12:22.443Z,25.99
2018-05-27T09:13:22.417Z,25.99
2018-05-27T09:14:22.398Z,26.05
2018-05-27T09:15:22.391Z,25.99
2018-05-27T09:16:22.343Z,26.07
2018-05-27T09:17:22.309Z,26.23
2018-05-27T09:18:22.289Z,26.31
2018-05-27T09:19:22.260Z,26.31
2018-05-27T09:20:22.227Z,26.44
2018-05-27T09:21:22.200Z,26.45
2018-05-27T09:22:22.185Z,26.58
2018-05-27T09:23:22.161Z,26.51
2018-05-27T09:24:22.124Z,26.51
2018-05-27T09:25:22.094Z,26.58
2018-05-27T09:26:22.065Z,26.59
2018-05-27T09:27:22.036Z,26.73
2018-05-27T09:28:22.022Z,26.74
2018-05-27T09:29:21.987Z,26.75
2018-05-27T09:30:21.975Z,26.71
2018-05-27T09:31:21.929Z,26.53
2018-05-27T09:32:21.912Z,26.66
2018-05-27T09:33:21.880Z,26.60
2018-05-27T09:34:21.860Z,26.62
2018-05-27T09:35:21.829Z,26.70
2018-05-27T09:36:21.798Z,26.77
2018-05-27T09:37:21.768Z,26.80
2018-05-27T09:38:21.740Z,26.97
2018-05-27T09:39:21.712Z,27.07
2018-05-27T09:40:21.690Z,27.12
2018-05-27T09:41:21.665Z,27.07
2018-05-27T09:42:21.651Z,27.26
2018-05-27T09:43:21.614Z,27.29
2018-05-27T09:44:21.583Z,27.42
2018-05-27T09:45:21.593Z,27.55
2018-05-27T09:46:21.525Z,27.55
2018-05-27T09:47:21.505Z,27.65
2018-05-27T09:48:21.480Z,27.68
2018-05-27T09:49:21.449Z,27.77
2018-05-27T09:50:21.421Z,27.68
2018-05-27T09:51:21.447Z,27.74
2018-05-27T09:52:21.368Z,27.64
2018-05-27T09:53:21.346Z,27.54
2018-05-27T09:54:21.323Z,27.68
2018-05-27T09:55:21.293Z,27.67
2018-05-27T09:56:21.264Z,27.71
2018-05-27T09:57:21.237Z,27.73
2018-05-27T09:58:21.206Z,27.58
2018-05-27T09:59:21.182Z,27.49
2018-05-27T10:00:21.163Z,27.47
2018-05-27T10:01:21.132Z,27.47
2018-05-27T10:02:21.117Z,27.44
2018-05-27T10:03:21.074Z,27.42
2018-05-27T10:04:21.054Z,27.48
2018-05-27T10:05:21.027Z,27.37
2018-05-27T10:06:21.002Z,27.26
2018-05-27T10:07:20.981Z,27.17
2018-05-27T10:08:20.947Z,27.14
2018-05-27T10:09:20.976Z,27.05
2018-05-27T10:10:20.891Z,27.00
2018-05-27T10:11:20.871Z,26.96
2018-05-27T10:12:20.840Z,26.93
2018-05-27T10:13:20.831Z,26.80
2018-05-27T10:14:20.796Z,26.73
2018-05-27T10:15:20.764Z,26.65
2018-05-27T10:16:20.736Z,26.58
2018-05-27T10:17:20.708Z,26.51
2018-05-27T10:18:20.681Z,26.44
2018-05-27T10:19:20.660Z,26.38
2018-05-27T10:20:20.629Z,26.34
2018-05-27T10:21:20.601Z,26.31
2018-05-27T10:22:20.574Z,26.19
2018-05-27T10:23:20.544Z,26.05
2018-05-27T10:24:20.523Z,25.98
2018-05-27T10:25:20.500Z,25.98
2018-05-27T10:26:20.475Z,25.81
2018-05-27T10:27:20.447Z,25.83
2018-05-27T10:28:20.417Z,25.70
2018-05-27T10:29:20.390Z,25.55
2018-05-27T10:30:20.371Z,25.53
2018-05-27T10:31:20.332Z,25.63
2018-05-27T10:32:20.307Z,25.41
2018-05-27T10:33:20.280Z,25.41
2018-05-27T10:34:20.270Z,25.25
2018-05-27T10:35:20.223Z,25.26
2018-05-27T10:36:20.197Z,25.18
2018-05-27T10:37:20.175Z,25.17
2018-05-27T10:38:20.163Z,25.07
2018-05-27T10:39:20.121Z,25.06
2018-05-27T10:40:20.090Z,25.01
2018-05-27T10:41:20.063Z,24.84
2018-05-27T10:42:20.038Z,24.80
2018-05-27T10:43:20.008Z,24.69
2018-05-27T10:44:19.980Z,24.73
2018-05-27T10:45:19.956Z,24.55
2018-05-27T10:46:19.927Z,24.57
2018-05-27T10:47:19.900Z,24.48
2018-05-27T10:48:19.892Z,24.35
2018-05-27T10:49:19.841Z,24.23
2018-05-27T10:50:19.810Z,24.18
2018-05-27T10:51:19.792Z,24.01
2018-05-27T10:52:19.760Z,23.98
2018-05-27T10:53:19.747Z,23.87
2018-05-27T10:54:19.701Z,23.55
2018-05-27T10:55:19.672Z,23.15
2018-05-27T10:56:19.646Z,22.80
2018-05-27T10:57:19.624Z,22.66
2018-05-27T10:58:19.602Z,22.45
2018-05-27T10:59:19.566Z,22.39
2018-05-27T11:00:19.551Z,22.20
2018-05-27T11:01:19.507Z,21.99
2018-05-27T11:02:19.483Z,21.83
2018-05-27T11:03:19.450Z,21.85
2018-05-27T11:04:19.424Z,21.89
2018-05-27T11:05:19.396Z,21.88
2018-05-27T11:06:19.374Z,21.80
2018-05-27T11:07:19.352Z,21.85
2018-05-27T11:08:19.305Z,21.72
2018-05-27T11:09:19.279Z,21.73
2018-05-27T11:10:19.252Z,21.66
2018-05-27T11:11:19.225Z,21.66
2018-05-27T11:12:19.191Z,21.55
2018-05-27T11:13:19.160Z,21.52
2018-05-27T11:14:19.130Z,21.48
2018-05-27T11:15:19.105Z,21.37
2018-05-27T11:16:19.073Z,21.39
2018-05-27T11:17:19.046Z,21.43
2018-05-27T11:18:19.017Z,21.45
2018-05-27T11:19:19.003Z,21.45
2018-05-27T11:20:18.983Z,21.46
2018-05-27T11:21:18.924Z,21.54
2018-05-27T11:22:18.897Z,21.48
2018-05-27T11:23:18.872Z,21.37
2018-05-27T11:24:18.842Z,21.35
2018-05-27T11:25:18.807Z,21.32
2018-05-27T11:26:18.776Z,21.18
2018-05-27T11:27:18.749Z,21.32
2018-05-27T11:28:18.748Z,21.21
2018-05-27T11:29:18.690Z,21.15
2018-05-27T11:30:18.680Z,21.21
2018-05-27T11:31:18.660Z,21.06
2018-05-27T11:32:18.600Z,20.97
2018-05-27T11:33:18.578Z,20.97
2018-05-27T11:34:18.539Z,20.97
2018-05-27T11:35:18.512Z,20.96
2018-05-27T11:36:18.479Z,21.02
2018-05-27T11:37:18.450Z,21.12
2018-05-27T11:38:18.430Z,21.12
2018-05-27T11:39:18.388Z,21.20
2018-05-27T11:40:18.360Z,21.12
2018-05-27T11:41:18.341Z,21.03
2018-05-27T11:42:18.310Z,20.78
2018-05-27T11:43:18.274Z,20.69
2018-05-27T11:44:18.262Z,20.77
2018-05-27T11:45:18.214Z,20.77
2018-05-27T11:46:18.176Z,20.80
2018-05-27T11:47:18.144Z,20.97
2018-05-27T11:48:18.128Z,21.00
2018-05-27T11:49:18.091Z,21.00
2018-05-27T11:50:18.083Z,21.15
2018-05-27T11:51:18.043Z,21.17
2018-05-27T11:52:18.004Z,21.21
2018-05-27T11:53:17.968Z,21.18
2018-05-27T11:54:17.987Z,21.21
2018-05-27T11:55:17.915Z,21.32
2018-05-27T11:56:17.881Z,21.36
2018-05-27T11:57:17.848Z,21.39
2018-05-27T11:58:17.839Z,21.42
2018-05-27T11:59:17.853Z,21.57
2018-05-27T12:00:17.764Z,21.61
2018-05-27T12:01:17.731Z,21.70
2018-05-27T12:02:17.708Z,21.91
2018-05-27T12:03:17.686Z,21.98
2018-05-27T12:04:17.668Z,21.96
2018-05-27T12:05:17.713Z,22.02
2018-05-27T12:07:17.602Z,22.06
2018-05-27T12:08:17.535Z,22.08
2018-05-27T12:09:17.730Z,22.23
2018-05-27T12:10:17.472Z,22.22
2018-05-27T12:11:17.436Z,22.33
2018-05-27T12:12:17.401Z,22.43
2018-05-27T12:13:17.390Z,22.48
2018-05-27T12:14:17.369Z,22.50
2018-05-27T12:15:17.319Z,22.60
2018-05-27T12:16:17.285Z,22.55
2018-05-27T12:17:17.254Z,22.65
2018-05-27T12:18:17.228Z,22.63
2018-05-27T12:19:17.194Z,22.84
2018-05-27T12:20:17.163Z,22.75
2018-05-27T12:21:17.145Z,22.99
2018-05-27T12:22:17.110Z,23.10
2018-05-27T12:23:17.080Z,23.12
2018-05-27T12:24:17.050Z,23.25
2018-05-27T12:25:17.022Z,23.44
2018-05-27T12:26:16.989Z,23.41
2018-05-27T12:27:16.961Z,23.56
2018-05-27T12:28:16.933Z,23.63
2018-05-27T12:29:16.898Z,23.83
2018-05-27T12:30:16.872Z,23.88
2018-05-27T12:31:16.845Z,24.02
2018-05-27T12:32:16.807Z,24.03
2018-05-27T12:33:16.787Z,24.16
2018-05-27T12:34:17.072Z,24.11
2018-05-27T12:35:17.033Z,24.17
2018-05-27T12:36:16.840Z,24.16
2018-05-27T12:37:16.668Z,24.17
2018-05-27T12:38:16.643Z,24.23
2018-05-27T12:39:16.614Z,24.24
2018-05-27T12:40:16.580Z,24.33
2018-05-27T12:41:16.560Z,24.36
2018-05-27T12:42:16.531Z,24.33
2018-05-27T12:43:16.499Z,24.43
2018-05-27T12:44:16.466Z,24.43
2018-05-27T12:45:16.444Z,24.48
2018-05-27T12:46:16.414Z,24.38
2018-05-27T12:47:16.385Z,24.40
2018-05-27T12:48:16.364Z,24.42
2018-05-27T12:49:16.323Z,24.43
2018-05-27T12:50:16.298Z,24.38
2018-05-27T12:51:16.270Z,24.40
2018-05-27T12:52:16.240Z,24.42
2018-05-27T12:53:16.215Z,24.40
2018-05-27T12:54:16.187Z,24.33